Recent forum postings ...
2021-04-13
Change wake turbulence after filing FP
2021-04-12
KLM-VA site "not responding", is my flight toast?
2021-04-10
Fly KLM Mon CTL
2021-04-09
SCHEDULE FLIGHT BOEING 737
2021-04-08
Law and rules in KLM VA
2021-04-04
Flying a Tour.


 
Aircraft IdentFlightrulesType of Flight
NumberType of AircraftWake turbulenceEquipmentTransponder Type
Departure AerodromeDeparture Time
Cruising speedFlight level
Route




Destination AerodromeTotal EETAlternative Aerodrome
Other information

Explanation of the IVAO flightplan

Flesland (ENBR), Norway

METAR
ENBR 080920Z 15015KT 3000 -SN VV013 00/M01 Q1004 TEMPO 16022G32KT 1200 SN VV007 RMK WIND 1200FT 14030KT

WINDSSE at 17 mph
VISIBILITY4.8 miles
CONDITIONSlight snow
CLOUDSvertical visibility to 1300 ft
TEMP32°F (0°C)
WIND CHILL21°F (-6°C)
DEWPT30°F (-1°C)
HUMIDITY93%
BAROMETER1004 hPa (29.65 in Hg)

Arlanda (ESSA), Sweden

METAR
ESSA 080920Z 27010KT CAVOK 04/M07 Q1006 R08/09//95 R19L/09//95 NOSIG

WINDW at 12 mph
VISIBILITYgreater than 7 miles
CONDITIONS
CLOUDSclear skies
TEMP39°F (4°C)
WIND CHILL32°F (0°C)
DEWPT19°F (-7°C)
HUMIDITY45%
BAROMETER1006 hPa (29.71 in Hg)

RUNWAYS

RunwayDesignatorSurfaceHeadingLengthWidthAltitudeILSILS-Freq.Glidescope Pitch
01LEFTCONCRETE10.373292.75 ft45.11 ft41.76 ftCAT II ILS 01L109.93
01RIGHTASPHALT10.412493.57 ft45.11 ft41.76 ftCAT II ILS 01R109.353
Registration TimeGroundspeedAltitudeTransponderHeadingLongitudeLatitudeOn ground
09:37 08-04-20210 kts181 ft1200795.2257960.28885Yes
09:400 kts181 ft1200795.2257960.28885Yes
09:430 kts181 ft1200795.2257960.28885Yes
09:460 kts181 ft12003505.2244560.28778Yes
09:490 kts181 ft12003505.2244560.28779Yes
09:520 kts181 ft64413505.2244560.28779Yes
09:551 kts181 ft64413545.2241760.28868Yes
09:5825 kts181 ft64413505.219460.29918Yes
10:01158 kts1756 ft64411705.2269360.26747No
10:04304 kts8671 ft6441965.3678960.09812No
10:07378 kts14033 ft6441455.496760.33133No
10:10441 kts18953 ft64411046.0775760.48487No
10:13411 kts25125 ft6441886.8250360.42095No
10:16470 kts25974 ft6441917.5081460.40209No